Terminal Aerodrome Forecast
Issued by NWS

Home | Current Version | Previous Version | Text Only | Print | Product List | Glossary On
Versions: 1 2 3 4 5 6 7 8 9 10 11 12 13
077
FTUS45 KGGW 010520
TAFSDY
TAF
KSDY 010520Z 0106/0206 VRB06KT P6SM BKN080
     FM011400 29011G24KT P6SM VCSH BKN070
     FM012200 31014G24KT P6SM VCSH BKN035=

USA.gov is the U.S. government's official web portal to all federal, state and local government web resources and services.